This is the latest recevied weather packets stored in our database for station/object K7CTM. If no packets are shown the sender has not sent any weather packets the latest 10 day(s).
| Time | Temp. | Humidity | Pressure | Rain* | Wind** | Luminosity | Snow |
|---|---|---|---|---|---|---|---|
| 1777465250 | 1.11° C | 83% | 1029.8 hPa | 0 mm | - | 10 W/m² | - |
| 1777464945 | 1.11° C | 82% | 1029.8 hPa | 0 mm | - | 7 W/m² | - |
| 1777464640 | 1.11° C | 82% | 1029.8 hPa | 0 mm | - | 4 W/m² | - |
| 1777464337 | 1.11° C | 82% | 1029.9 hPa | 0 mm | - | 3 W/m² | - |
| 1777464032 | 1.11° C | 83% | 1030 hPa | 0 mm | - | 1 W/m² | - |
| 1777463728 | 1.11° C | 83% | 1029.8 hPa | 0 mm | - | 1 W/m² | - |
| 1777463422 | 0.56° C | 84% | 1029.7 hPa | 0 mm | - | 0 W/m² | - |
| 1777463119 | 1.11° C | 84% | 1029.7 hPa | 0 mm | - | 0 W/m² | - |
| 1777462815 | 0.56° C | 86% | 1029.8 hPa | 0 mm | - | 0 W/m² | - |
| 1777462509 | 0° C | 88% | 1029.7 hPa | 0 mm | - | 0 W/m² | - |
| 1777462206 | 0° C | 87% | 1029.8 hPa | 0 mm | - | 0 W/m² | - |
| 1777461903 | 0° C | 89% | 1029.7 hPa | 0 mm | - | 0 W/m² | - |
| 1777461600 | -0.56° C | 91% | 1029.5 hPa | 0 mm | - | 0 W/m² | - |
| 1777461295 | -0.56° C | 89% | 1029.5 hPa | 0 mm | - | 0 W/m² | - |
| 1777460990 | 0° C | 86% | 1029.4 hPa | 0 mm | - | 0 W/m² | - |
| 1777460681 | 0.56° C | 84% | 1029.6 hPa | 0 mm | - | 0 W/m² | - |
| 1777460377 | 1.11° C | 83% | 1029.5 hPa | 0 mm | - | 0 W/m² | - |
| 1777460072 | 1.11° C | 82% | 1029.1 hPa | 0 mm | - | 0 W/m² | - |
| 1777459770 | 1.67° C | 81% | 1029.4 hPa | 0 mm | - | 0 W/m² | - |
| 1777459467 | 1.67° C | 79% | 1029.4 hPa | 0 mm | - | 0 W/m² | - |
| 1777459164 | 2.22° C | 78% | 1029.4 hPa | 0 mm | - | 0 W/m² | - |
| 1777458861 | 2.22° C | 78% | 1029.4 hPa | 0 mm | - | 0 W/m² | - |
| 1777458558 | 2.22° C | 78% | 1029.4 hPa | 0 mm | - | 0 W/m² | - |
| 1777458255 | 1.67° C | 79% | 1029.2 hPa | 0 mm | - | 0 W/m² | - |
| 1777457950 | 1.67° C | 82% | 1029.4 hPa | 0 mm | - | 0 W/m² | - |
* Rain latest hour (hover to see other rain measurements)
** Current wind speed in m/s (hover to see current wind gust speed)